Time;durP1;ratioP1;P1;durP2;ratioP2;P2;SDS_P1;SDS_P2;PMS_P1;PMS_P2;Temp;Humidity;BMP_temperature;BMP_pressure;BME280_temperature;BME280_humidity;BME280_pressure;Samples;Min_cycle;Max_cycle;Signal;HPM_P1;HPM_P2
2022/07/02 00:03:30;;;;;;;12.25;3.20;;;;;;;18.17;68.26;99662.25;10417826;28;20045;-74
2022/07/02 00:08:31;;;;;;;15.88;2.90;;;;;;;18.02;67.37;99648.47;10418167;28;20039;-74
2022/07/02 00:13:33;;;;;;;17.52;3.42;;;;;;;18.10;68.30;99647.28;10417322;28;20690;-73
2022/07/02 00:18:34;;;;;;;14.27;3.25;;;;;;;17.77;68.08;99598.47;10418184;28;20038;-74
2022/07/02 00:23:35;;;;;;;20.23;3.35;;;;;;;17.05;68.50;99510.00;10417540;28;20033;-74
2022/07/02 00:28:40;;;;;;;11.90;3.28;;;;;;;17.90;70.01;99669.16;10417298;28;20086;-74
2022/07/02 00:33:45;;;;;;;47.45;5.72;;;;;;;17.83;70.64;99682.72;10416956;28;20045;-74
2022/07/02 00:38:45;;;;;;;33.45;5.57;;;;;;;17.68;70.15;99672.38;10416504;28;20037;-74
2022/07/02 00:43:46;;;;;;;19.40;3.75;;;;;;;17.54;70.54;99685.19;10416781;28;20061;-73
2022/07/02 00:48:47;;;;;;;58.65;7.32;;;;;;;17.15;70.65;99646.31;10411876;28;20049;-73
2022/07/02 00:53:48;;;;;;;41.90;4.82;;;;;;;16.64;71.04;99570.59;10394562;28;20052;-73
2022/07/02 00:58:49;;;;;;;20.50;3.85;;;;;;;17.01;70.98;99642.97;10416101;28;20564;-73
2022/07/02 01:03:52;;;;;;;22.27;4.35;;;;;;;17.41;71.84;99700.66;10431807;28;20037;-73
2022/07/02 01:14:18;;;;;;;20.73;4.00;;;;;;;17.17;72.26;99686.31;10414852;28;20087;-73
2022/07/02 01:19:20;;;;;;;;;;;;;;;17.55;70.13;99708.28;10414492;28;20041;-73
2022/07/02 01:24:24;;;;;;;55.65;6.10;;;;;;;17.26;72.41;99693.84;10414887;28;20270;-74
2022/07/02 01:29:25;;;;;;;32.47;4.63;;;;;;;17.42;71.58;99707.69;10414295;28;20087;-74
2022/07/02 01:34:28;;;;;;;59.55;6.10;;;;;;;17.52;71.73;99714.13;10413581;28;20041;-74
2022/07/02 01:39:29;;;;;;;48.53;5.07;;;;;;;16.84;71.83;99586.47;10413953;28;20049;-74
2022/07/02 01:44:30;;;;;;;11.07;2.60;;;;;;;17.83;71.11;99736.44;10414031;28;20080;-74
2022/07/02 01:49:31;;;;;;;10.93;2.90;;;;;;;17.72;70.56;99697.72;10413782;28;20041;-73
2022/07/02 01:54:33;;;;;;;13.10;3.30;;;;;;;18.14;70.01;99729.94;10414226;28;20049;-74
2022/07/02 01:59:34;;;;;;;8.23;3.20;;;;;;;17.72;69.27;99627.88;10412156;28;20497;-74
2022/07/02 02:04:35;;;;;;;7.70;3.10;;;;;;;18.53;69.15;99732.97;10414278;28;20059;-74
2022/07/02 02:09:36;;;;;;;9.25;3.15;;;;;;;18.68;68.65;99737.88;10413556;28;20454;-74
2022/07/02 02:14:37;;;;;;;13.73;3.78;;;;;;;17.31;68.94;99516.78;10413045;28;20132;-73
2022/07/02 02:19:38;;;;;;;27.05;3.55;;;;;;;18.30;68.51;99655.00;10412262;28;20054;-74
2022/07/02 02:24:39;;;;;;;74.13;7.35;;;;;;;19.23;68.35;99750.88;10413135;28;20128;-74
2022/07/02 02:29:39;;;;;;;17.35;3.33;;;;;;;19.46;67.00;99771.53;10411991;28;20037;-74
2022/07/02 02:34:40;;;;;;;47.33;5.90;;;;;;;19.88;66.29;99744.28;10419182;28;20071;-74
2022/07/02 02:39:41;;;;;;;10.48;4.10;;;;;;;20.03;65.40;99763.41;10421589;28;20137;-73
2022/07/02 02:44:42;;;;;;;18.92;3.72;;;;;;;20.33;65.17;99764.16;10420683;28;20061;-74
2022/07/02 02:49:42;;;;;;;14.25;3.75;;;;;;;20.60;63.87;99737.34;10421077;28;20497;-74
2022/07/02 02:54:44;;;;;;;14.93;3.35;;;;;;;20.02;63.11;99639.66;10421343;28;20044;-74
2022/07/02 02:59:44;;;;;;;19.77;3.05;;;;;;;20.48;63.12;99729.31;10421145;28;20038;-75
2022/07/02 03:04:45;;;;;;;8.82;2.50;;;;;;;20.59;62.85;99762.69;10420482;28;20037;-74
2022/07/02 03:09:46;;;;;;;16.70;2.58;;;;;;;20.93;62.06;99693.22;10390640;28;20616;-75
2022/07/02 03:14:47;;;;;;;16.48;3.72;;;;;;;22.11;60.07;99743.88;10393426;28;20049;-75
2022/07/02 03:19:48;;;;;;;13.77;2.53;;;;;;;21.89;58.62;99752.06;10379831;28;20045;-74
2022/07/02 03:24:49;;;;;;;12.73;3.00;;;;;;;21.41;58.96;99754.56;10378461;28;20563;-74
2022/07/02 03:29:50;;;;;;;12.63;2.67;;;;;;;21.05;59.16;99728.19;10378688;28;20037;-74
2022/07/02 03:34:52;;;;;;;12.85;3.00;;;;;;;21.19;59.25;99751.88;10378607;28;20501;-74
2022/07/02 03:39:53;;;;;;;16.25;3.00;;;;;;;20.50;57.61;99630.88;10378885;28;20448;-72
2022/07/02 03:44:54;;;;;;;11.77;3.35;;;;;;;22.67;54.01;99833.59;10378542;28;20144;-73
2022/07/02 03:49:54;;;;;;;17.58;2.85;;;;;;;24.63;49.79;99800.63;10377969;28;20038;-74
2022/07/02 03:54:55;;;;;;;48.13;6.32;;;;;;;25.61;47.29;99815.53;10377315;28;20053;-76
2022/07/02 03:59:56;;;;;;;40.75;9.93;;;;;;;25.50;44.79;99858.25;10378185;28;20065;-72
2022/07/02 04:04:57;;;;;;;40.13;15.10;;;;;;;24.88;44.23;99776.09;10377809;28;20037;-75
2022/07/02 04:09:58;;;;;;;34.03;18.08;;;;;;;25.16;43.97;99841.78;10376373;28;20128;-75
2022/07/02 04:14:58;;;;;;;56.03;20.55;;;;;;;24.41;44.29;99869.56;10377075;28;20056;-76
2022/07/02 04:19:59;;;;;;;45.28;20.00;;;;;;;23.34;44.62;99844.88;10391992;28;20061;-73
2022/07/02 04:25:00;;;;;;;37.72;18.98;;;;;;;22.46;46.29;99838.06;10376929;28;20038;-75
2022/07/02 04:30:01;;;;;;;43.22;20.40;;;;;;;21.71;45.96;99823.53;10379706;28;20519;-77
2022/07/02 04:35:02;;;;;;;41.30;19.77;;;;;;;22.08;46.33;99858.00;10414527;28;20120;-77
2022/07/02 04:40:04;;;;;;;51.47;20.02;;;;;;;21.89;47.14;99834.00;10416948;28;20045;-75
2022/07/02 04:45:05;;;;;;;38.00;18.65;;;;;;;21.58;46.05;99875.31;10416576;28;20515;-75
2022/07/02 04:50:07;;;;;;;32.15;17.83;;;;;;;20.68;46.31;99751.22;10416530;28;20041;-73
2022/07/02 04:55:08;;;;;;;37.22;18.30;;;;;;;21.65;45.61;99813.75;10412193;28;20118;-68
2022/07/02 05:00:09;;;;;;;24.35;17.25;;;;;;;22.05;45.31;99850.41;10394355;28;20042;-68
2022/07/02 05:05:10;;;;;;;26.20;17.20;;;;;;;22.50;44.08;99844.59;10375475;28;20045;-67
2022/07/02 05:10:10;;;;;;;22.60;16.42;;;;;;;22.43;42.90;99716.78;10375056;28;20038;-68
2022/07/02 05:15:11;;;;;;;23.52;15.15;;;;;;;23.84;40.73;99849.69;10374216;28;20053;-68
2022/07/02 05:20:12;;;;;;;27.80;15.70;;;;;;;24.02;39.83;99836.66;10372863;28;20049;-67
2022/07/02 05:25:13;;;;;;;37.38;16.33;;;;;;;24.17;39.43;99841.31;10369625;28;20117;-67
2022/07/02 05:30:13;;;;;;;22.92;15.88;;;;;;;24.29;38.41;99839.13;10404657;28;20416;-68
2022/07/02 05:35:14;;;;;;;31.75;14.63;;;;;;;24.56;37.92;99847.03;10413629;28;20064;-68
2022/07/02 05:40:15;;;;;;;22.80;14.73;;;;;;;24.74;36.76;99840.22;10398848;28;20464;-68
2022/07/02 05:45:16;;;;;;;43.38;15.50;;;;;;;25.02;37.69;99855.94;10378355;28;20061;-68
2022/07/02 05:50:17;;;;;;;16.17;12.55;;;;;;;25.08;37.09;99834.19;10373228;28;20052;-68
2022/07/02 05:55:18;;;;;;;21.23;13.20;;;;;;;25.25;36.65;99848.31;10373274;28;20064;-68
2022/07/02 06:00:20;;;;;;;23.05;12.57;;;;;;;25.37;36.75;99853.41;10372485;28;20398;-69
2022/07/02 06:10:40;;;;;;;18.42;11.90;;;;;;;25.72;35.25;99850.53;10372304;28;20046;-67
2022/07/02 06:15:41;;;;;;;26.08;11.60;;;;;;;26.00;34.63;99841.97;10372612;28;20132;-68
2022/07/02 06:20:42;;;;;;;20.77;10.95;;;;;;;26.30;35.14;99830.06;10372595;28;20041;-67
2022/07/02 06:25:43;;;;;;;19.60;10.68;;;;;;;26.06;33.84;99783.69;10372443;28;20046;-68
2022/07/02 06:30:44;;;;;;;16.85;10.52;;;;;;;26.44;33.74;99809.22;10388850;28;20064;-67
2022/07/02 06:35:45;;;;;;;18.45;10.30;;;;;;;26.46;33.08;99842.44;10392650;28;20121;-68
2022/07/02 06:40:45;;;;;;;21.40;10.15;;;;;;;25.88;34.09;99840.41;10385645;28;20042;-68
2022/07/02 06:45:46;;;;;;;15.95;10.23;;;;;;;25.46;34.30;99719.34;10374629;28;20053;-68
2022/07/02 06:50:47;;;;;;;14.60;9.23;;;;;;;25.68;33.25;99740.66;10371295;28;20104;-67
2022/07/02 06:55:48;;;;;;;18.88;9.15;;;;;;;26.22;32.96;99847.78;10402878;28;20465;-67
2022/07/02 07:00:48;;;;;;;15.52;8.35;;;;;;;26.10;33.43;99848.16;10387474;28;20132;-68
2022/07/02 07:05:49;;;;;;;14.15;8.07;;;;;;;25.90;32.95;99804.75;10384651;28;20042;-75
2022/07/02 07:10:51;;;;;;;16.63;7.63;;;;;;;26.44;32.79;99843.81;10405145;28;20060;-73
2022/07/02 07:15:56;;;;;;;13.50;6.95;;;;;;;26.56;32.10;99847.81;10410675;28;20412;-72
2022/07/02 07:20:58;;;;;;;15.77;8.02;;;;;;;26.42;33.39;99831.31;10416611;28;20135;-73
2022/07/02 07:26:00;;;;;;;10.38;6.18;;;;;;;26.65;32.25;99826.19;10418462;28;20044;-74
2022/07/02 07:31:01;;;;;;;13.00;7.37;;;;;;;26.72;31.90;99804.91;10408684;28;20041;-72
2022/07/02 07:36:02;;;;;;;12.75;6.82;;;;;;;27.03;31.99;99810.81;10398905;28;20152;-74
2022/07/02 07:41:03;;;;;;;23.02;7.93;;;;;;;27.29;31.82;99838.63;10381948;28;20041;-73
2022/07/02 07:46:04;;;;;;;10.38;6.22;;;;;;;27.30;32.25;99812.16;10400146;28;20127;-73
2022/07/02 07:51:07;;;;;;;14.50;7.72;;;;;;;27.44;31.67;99818.53;10410460;28;20042;-73
2022/07/02 07:56:08;;;;;;;14.13;6.88;;;;;;;27.79;31.51;99823.81;10411975;28;20091;-72
2022/07/02 08:01:09;;;;;;;10.32;7.15;;;;;;;27.12;31.01;99723.75;10412274;28;20056;-72
2022/07/02 08:06:10;;;;;;;16.42;7.82;;;;;;;26.80;30.85;99678.09;10411030;28;20034;-73
2022/07/02 08:11:11;;;;;;;12.43;7.10;;;;;;;27.01;30.90;99692.25;10413054;28;20041;-74
2022/07/02 08:16:11;;;;;;;14.40;7.68;;;;;;;26.78;30.98;99637.53;10412526;28;20515;-71
2022/07/02 08:21:12;;;;;;;20.05;7.70;;;;;;;27.65;30.77;99742.66;10411736;28;20100;-74
2022/07/02 08:26:13;;;;;;;15.80;7.00;;;;;;;28.21;30.21;99812.00;10413335;28;20406;-74
2022/07/02 08:31:14;;;;;;;13.30;7.20;;;;;;;28.23;30.45;99807.81;10410599;28;20041;-72
2022/07/02 08:36:15;;;;;;;32.15;7.68;;;;;;;28.11;30.29;99757.53;10412268;28;20477;-72
2022/07/02 08:41:16;;;;;;;15.50;6.93;;;;;;;28.36;30.18;99794.50;10408553;28;20129;-72
2022/07/02 08:46:18;;;;;;;11.13;6.00;;;;;;;28.41;29.86;99813.59;10415238;28;20045;-71
2022/07/02 08:51:22;;;;;;;11.65;5.93;;;;;;;28.21;29.77;99793.69;10410464;28;20041;-73
2022/07/02 08:56:24;;;;;;;13.45;6.18;;;;;;;28.26;29.79;99800.97;10404298;28;20128;-72
2022/07/02 09:01:25;;;;;;;13.38;6.55;;;;;;;28.53;29.86;99804.91;10405641;28;20049;-71
2022/07/02 09:06:29;;;;;;;14.02;6.97;;;;;;;27.16;29.64;99568.59;10408718;28;20417;-71
2022/07/02 09:11:30;;;;;;;11.40;6.78;;;;;;;28.15;30.05;99668.44;10402820;28;20081;-72
2022/07/02 09:16:32;;;;;;;32.22;8.02;;;;;;;28.89;30.35;99756.66;10403571;28;20037;-76
2022/07/02 09:21:49;;;;;;;16.85;7.10;;;;;;;28.68;29.57;99687.09;10409066;28;20041;-75
2022/07/02 09:26:59;;;;;;;12.77;7.70;;;;;;;28.97;28.88;99733.25;10400864;28;20424;-72
2022/07/02 09:32:01;;;;;;;14.93;7.97;;;;;;;29.01;29.33;99780.75;10404077;28;20041;-72
2022/07/02 09:37:12;;;;;;;23.52;8.63;;;;;;;29.29;29.33;99772.56;10402784;28;20044;-71
2022/07/02 09:42:24;;;;;;;21.83;8.63;;;;;;;28.78;29.12;99665.06;10407013;28;20072;-76
2022/07/02 09:47:33;;;;;;;19.00;8.20;;;;;;;29.67;30.04;99758.59;10387931;28;20045;-72
2022/07/02 09:52:34;;;;;;;16.20;7.13;;;;;;;29.13;29.37;99753.72;10414486;28;20392;-72
2022/07/02 09:57:35;;;;;;;18.48;5.90;;;;;;;27.52;29.50;99522.44;10378768;28;20045;-73
2022/07/02 10:02:37;;;;;;;12.15;5.72;;;;;;;29.25;29.50;99760.59;10373613;28;20045;-72
2022/07/02 10:07:38;;;;;;;8.57;4.57;;;;;;;29.80;28.72;99766.78;10378615;28;20056;-72
2022/07/02 10:12:42;;;;;;;15.07;4.78;;;;;;;29.46;28.93;99723.44;10372056;28;20489;-74
2022/07/02 10:17:44;;;;;;;11.25;3.67;;;;;;;29.73;28.53;99728.03;10382131;28;20049;-77
2022/07/02 10:22:44;;;;;;;11.00;3.47;;;;;;;29.34;28.30;99753.28;10413536;28;20045;-70
2022/07/02 10:27:46;;;;;;;10.32;3.80;;;;;;;29.18;27.83;99719.19;10413195;28;20059;-71
2022/07/02 10:32:58;;;;;;;15.50;3.60;;;;;;;28.61;27.85;99637.53;10413161;28;20045;-69
2022/07/02 10:38:00;;;;;;;23.42;3.72;;;;;;;29.27;27.88;99752.91;10412484;28;20144;-73
2022/07/02 10:43:01;;;;;;;10.57;3.17;;;;;;;28.73;27.94;99639.75;10401118;28;20100;-74
2022/07/02 10:48:04;;;;;;;12.93;2.75;;;;;;;29.32;27.40;99720.78;10395522;28;20079;-71
2022/07/02 10:53:20;;;;;;;22.85;3.40;;;;;;;29.68;26.77;99749.28;10373761;28;20045;-69
2022/07/02 10:58:25;;;;;;;13.18;2.85;;;;;;;29.57;26.94;99735.78;10379306;28;20049;-71
2022/07/02 11:03:27;;;;;;;7.72;2.45;;;;;;;29.40;27.31;99741.09;10390604;28;20125;-71
2022/07/02 11:08:49;;;;;;;15.03;2.47;;;;;;;29.34;26.76;99748.63;10406260;28;20080;-72
2022/07/02 11:13:55;;;;;;;13.60;3.22;;;;;;;29.41;27.48;99741.94;10379414;28;20076;-72
2022/07/02 11:18:58;;;;;;;9.93;2.05;;;;;;;29.32;26.71;99728.19;10425759;28;20045;-72
2022/07/02 11:24:00;;;;;;;7.30;1.63;;;;;;;29.23;26.68;99719.09;10402508;28;20042;-72
2022/07/02 11:29:04;;;;;;;29.00;2.90;;;;;;;29.31;26.21;99696.44;10378585;28;20042;-72
2022/07/02 11:34:06;;;;;;;13.82;1.85;;;;;;;29.35;25.38;99722.91;10387782;28;20427;-75
2022/07/02 11:39:15;;;;;;;13.95;1.90;;;;;;;29.51;25.24;99747.16;10388245;28;20049;-71
2022/07/02 11:44:18;;;;;;;12.18;2.00;;;;;;;28.75;25.39;99654.72;10376968;28;20081;-71
2022/07/02 11:49:24;;;;;;;15.90;1.52;;;;;;;29.37;24.27;99749.13;10395091;28;20128;-69
2022/07/02 11:54:26;;;;;;;19.20;2.08;;;;;;;29.15;24.30;99752.63;10418698;28;20037;-77
2022/07/02 11:59:27;;;;;;;10.63;1.20;;;;;;;28.80;24.16;99694.78;10419141;28;20477;-71
2022/07/02 12:04:28;;;;;;;8.70;1.50;;;;;;;29.23;24.08;99749.97;10417657;28;20042;-74
2022/07/02 12:09:29;;;;;;;19.48;2.10;;;;;;;29.25;23.71;99750.47;10407447;28;20132;-71
2022/07/02 12:14:30;;;;;;;18.08;1.65;;;;;;;29.00;23.74;99740.84;10387180;28;20501;-72
2022/07/02 12:19:32;;;;;;;3.53;1.20;;;;;;;28.55;22.90;99666.88;10384749;28;20092;-70
2022/07/02 12:24:35;;;;;;;9.13;1.10;;;;;;;28.26;23.94;99609.78;10417209;28;20037;-71
2022/07/02 12:29:53;;;;;;;16.08;1.50;;;;;;;28.47;23.10;99645.72;10389245;28;20164;-70
2022/07/02 12:34:59;;;;;;;13.43;1.48;;;;;;;28.89;22.17;99709.38;10394127;28;20072;-69
2022/07/02 12:40:09;;;;;;;16.52;1.38;;;;;;;28.37;22.04;99648.63;10378918;28;20084;-70
2022/07/02 12:45:19;;;;;;;8.10;1.30;;;;;;;28.79;21.59;99721.31;10398833;28;20045;-70
2022/07/02 12:50:21;;;;;;;12.73;1.42;;;;;;;28.99;20.87;99758.38;10416854;28;20048;-69
2022/07/02 12:55:37;;;;;;;11.18;1.40;;;;;;;29.06;21.02;99764.28;10416320;28;20033;-70
2022/07/02 13:00:40;;;;;;;10.02;1.30;;;;;;;28.77;21.16;99717.28;10416496;28;20076;-70
2022/07/02 13:05:42;;;;;;;24.70;1.90;;;;;;;28.83;21.14;99746.13;10415660;28;20478;-70
2022/07/02 13:10:47;;;;;;;18.20;1.93;;;;;;;28.61;21.27;99772.25;10387451;28;20512;-71
2022/07/02 13:15:49;;;;;;;7.88;0.88;;;;;;;28.49;20.96;99763.72;10413623;28;20041;-70
2022/07/02 13:20:50;;;;;;;21.95;2.22;;;;;;;28.35;21.27;99769.13;10415654;28;20041;-72
2022/07/02 13:25:51;;;;;;;12.95;1.30;;;;;;;28.49;20.91;99774.66;10400700;28;20038;-73
2022/07/02 13:30:51;;;;;;;8.70;1.25;;;;;;;28.35;20.66;99757.38;10404119;28;20049;-76
2022/07/02 13:35:53;;;;;;;17.80;1.40;;;;;;;28.13;20.97;99747.13;10401129;28;20042;-70
2022/07/02 13:40:54;;;;;;;16.80;1.88;;;;;;;27.57;20.85;99682.50;10402381;28;20394;-69
2022/07/02 13:45:54;;;;;;;21.05;1.98;;;;;;;27.61;20.66;99681.63;10414779;28;20132;-73
2022/07/02 13:50:55;;;;;;;16.00;2.05;;;;;;;27.77;20.64;99739.50;10414091;28;20580;-71
2022/07/02 13:55:56;;;;;;;4.53;1.75;;;;;;;27.79;20.37;99775.53;10391471;28;20045;-70
2022/07/02 14:00:57;;;;;;;22.98;1.50;;;;;;;27.84;20.29;99786.34;10373363;28;20509;-69
2022/07/02 14:05:58;;;;;;;20.85;1.90;;;;;;;27.71;20.20;99790.59;10392803;28;20039;-71
2022/07/02 14:10:59;;;;;;;7.45;1.38;;;;;;;26.89;20.62;99670.09;10373315;28;20068;-70
2022/07/02 14:16:00;;;;;;;3.13;0.80;;;;;;;27.00;20.42;99715.19;10372493;28;20502;-71
2022/07/02 14:21:02;;;;;;;24.15;2.60;;;;;;;27.40;20.23;99798.41;10371886;28;20042;-71
2022/07/02 14:26:03;;;;;;;6.53;1.10;;;;;;;27.29;20.44;99819.53;10372090;28;20081;-75
2022/07/02 14:31:04;;;;;;;15.77;1.40;;;;;;;27.04;20.69;99804.28;10372508;28;20040;-71
2022/07/02 14:36:05;;;;;;;8.73;0.82;;;;;;;27.13;21.25;99839.88;10372973;28;20038;-72
2022/07/02 14:46:31;;;;;;;15.52;1.50;;;;;;;26.28;22.47;99745.09;10372259;28;20045;-71
2022/07/02 14:51:32;;;;;;;27.35;2.13;;;;;;;26.72;23.03;99845.78;10371295;28;20054;-72
2022/07/02 14:56:34;;;;;;;11.88;1.52;;;;;;;26.50;24.48;99820.91;10371822;28;20050;-73
2022/07/02 15:01:35;;;;;;;9.82;1.35;;;;;;;26.22;25.62;99811.59;10372346;28;20044;-73
2022/07/02 15:06:36;;;;;;;264.65;18.35;;;;;;;25.62;26.69;99754.59;10371261;28;20056;-71
2022/07/02 15:11:36;;;;;;;11.23;1.35;;;;;;;26.29;27.06;99894.56;10371698;28;20506;-71
2022/07/02 15:16:37;;;;;;;13.02;1.48;;;;;;;25.99;27.18;99881.16;10371551;28;20049;-70
2022/07/02 15:21:45;;;;;;;32.08;3.10;;;;;;;25.94;28.17;99923.66;10386835;28;20140;-72
2022/07/02 15:26:46;;;;;;;14.98;1.17;;;;;;;25.60;28.08;99906.34;10371182;28;20049;-71
2022/07/02 15:31:47;;;;;;;6.97;1.20;;;;;;;25.38;28.42;99893.94;10371433;28;20045;-70
2022/07/02 15:36:49;;;;;;;12.38;1.27;;;;;;;24.01;28.92;99716.50;10371769;28;20049;-71
2022/07/02 15:41:52;;;;;;;7.07;1.00;;;;;;;24.94;29.03;99893.72;10376765;28;20056;-71
2022/07/02 15:46:54;;;;;;;13.57;1.55;;;;;;;25.00;29.34;99939.63;10377654;28;20048;-72
2022/07/02 15:51:58;;;;;;;12.77;1.50;;;;;;;24.66;29.81;99917.66;10378520;28;20111;-69
2022/07/02 15:57:09;;;;;;;9.30;1.40;;;;;;;24.83;30.88;99986.13;10384785;28;20409;-70
2022/07/02 16:02:11;;;;;;;16.83;1.73;;;;;;;24.37;30.79;99956.16;10414810;28;20056;-64
2022/07/02 16:07:12;;;;;;;10.43;1.30;;;;;;;24.13;31.03;99968.56;10402691;28;20048;-64
2022/07/02 16:12:15;;;;;;;8.07;1.25;;;;;;;23.39;31.52;99889.09;10415512;28;20954;-64
2022/07/02 16:17:17;;;;;;;5.13;1.20;;;;;;;23.95;32.17;100002.44;10412372;28;20084;-65
2022/07/02 16:22:20;;;;;;;4.53;1.15;;;;;;;23.58;32.42;99981.63;10384986;28;20049;-63
2022/07/02 16:27:20;;;;;;;13.45;1.23;;;;;;;23.59;32.70;100015.78;10377341;28;20042;-64
2022/07/02 16:32:44;;;;;;;15.18;1.85;;;;;;;23.38;33.76;100011.31;10391164;28;20041;-64
2022/07/02 16:37:45;;;;;;;8.32;1.33;;;;;;;23.19;33.76;100013.63;10376349;28;20099;-64
2022/07/02 16:42:48;;;;;;;31.55;1.85;;;;;;;22.89;34.37;99995.19;10376259;28;20568;-67
2022/07/02 16:47:49;;;;;;;11.40;1.47;;;;;;;22.86;34.52;100029.03;10375379;28;20133;-64
2022/07/02 16:53:03;;;;;;;21.13;2.13;;;;;;;22.74;36.24;100044.63;10374783;28;20144;-64
2022/07/02 16:58:04;;;;;;;22.45;1.88;;;;;;;22.40;35.59;100019.59;10390917;28;20037;-65
2022/07/02 17:03:06;;;;;;;9.25;1.80;;;;;;;22.21;36.10;100009.13;10375227;28;20046;-65
2022/07/02 17:08:09;;;;;;;25.60;2.63;;;;;;;22.34;36.41;100048.50;10386017;28;20120;-69
2022/07/02 17:13:10;;;;;;;13.53;1.97;;;;;;;22.16;36.69;100052.31;10374502;28;20045;-64
2022/07/02 17:18:11;;;;;;;14.00;1.90;;;;;;;22.00;36.93;100053.19;10374186;28;20042;-64
2022/07/02 17:23:12;;;;;;;10.45;2.05;;;;;;;21.80;37.19;100051.81;10375093;28;20501;-65
2022/07/02 17:28:13;;;;;;;9.13;1.60;;;;;;;21.73;37.40;100053.09;10374353;28;20042;-64
2022/07/02 17:33:14;;;;;;;12.73;1.92;;;;;;;21.08;37.78;99981.56;10386230;28;20029;-65
2022/07/02 17:38:17;;;;;;;10.82;1.58;;;;;;;21.64;37.84;100093.25;10412226;28;20041;-64
2022/07/02 17:43:19;;;;;;;9.65;2.35;;;;;;;21.40;38.14;100082.59;10411553;28;20121;-65
2022/07/02 17:48:20;;;;;;;18.35;2.22;;;;;;;20.78;38.25;99988.09;10392368;28;20042;-64
2022/07/02 17:53:21;;;;;;;7.95;1.23;;;;;;;20.96;38.59;100022.13;10373667;28;20056;-67
2022/07/02 17:58:22;;;;;;;4.78;1.20;;;;;;;21.44;38.50;100099.13;10398656;28;20056;-64
2022/07/02 18:03:23;;;;;;;57.67;3.65;;;;;;;20.96;38.76;100019.44;10375820;28;20081;-65
2022/07/02 18:08:23;;;;;;;5.70;1.35;;;;;;;21.10;38.78;100055.88;10400508;28;20049;-65
2022/07/02 18:13:24;;;;;;;9.95;1.45;;;;;;;20.69;39.22;99998.47;10386144;28;20524;-64
2022/07/02 18:18:25;;;;;;;6.40;1.50;;;;;;;21.22;39.02;100100.91;10373215;28;20038;-64
2022/07/02 18:23:26;;;;;;;4.82;1.42;;;;;;;20.65;39.54;100021.59;10372188;28;20042;-64
2022/07/02 18:28:27;;;;;;;11.85;1.80;;;;;;;21.00;39.82;100096.22;10372440;28;20050;-65
2022/07/02 18:33:27;;;;;;;8.07;1.70;;;;;;;20.51;39.89;100021.03;10370782;28;20038;-64
2022/07/02 18:38:28;;;;;;;3.63;1.30;;;;;;;20.89;40.20;100087.09;10387100;28;20038;-64
2022/07/02 18:43:30;;;;;;;8.20;1.30;;;;;;;20.92;40.54;100118.19;10372579;28;20061;-65
2022/07/02 18:48:30;;;;;;;6.03;1.33;;;;;;;20.84;41.01;100111.28;10371051;28;20081;-65
2022/07/02 18:53:32;;;;;;;19.80;1.77;;;;;;;20.67;41.09;100088.81;10371414;28;20065;-65
2022/07/02 18:58:33;;;;;;;9.98;1.50;;;;;;;19.87;41.36;99992.53;10372512;28;20056;-64
2022/07/02 19:03:34;;;;;;;20.30;2.30;;;;;;;19.70;41.59;99987.03;10369962;28;20030;-63
2022/07/02 19:08:35;;;;;;;17.30;1.88;;;;;;;20.39;42.04;100122.78;10371556;28;20038;-64
2022/07/02 19:13:37;;;;;;;22.38;2.10;;;;;;;20.29;42.43;100122.59;10372160;28;20049;-64
2022/07/02 19:18:38;;;;;;;23.25;2.00;;;;;;;19.94;42.79;100099.16;10378922;28;20038;-70
2022/07/02 19:23:42;;;;;;;10.70;1.58;;;;;;;20.05;42.82;100119.91;10379243;28;20556;-64
2022/07/02 19:34:03;;;;;;;13.70;1.48;;;;;;;19.12;42.88;99969.84;10378892;28;20152;-64
2022/07/02 19:39:04;;;;;;;8.25;1.48;;;;;;;19.78;43.08;100092.63;10386576;28;20045;-64
2022/07/02 19:44:05;;;;;;;8.52;1.20;;;;;;;20.01;43.16;100144.88;10418999;28;20103;-64
2022/07/02 19:49:06;;;;;;;8.20;1.65;;;;;;;19.16;43.37;99998.72;10385104;28;20069;-64
2022/07/02 19:54:07;;;;;;;11.32;1.80;;;;;;;19.97;43.48;100127.53;10378065;28;20107;-64
2022/07/02 19:59:08;;;;;;;12.82;1.35;;;;;;;19.83;43.81;100110.75;10376161;28;20065;-65
2022/07/02 20:04:10;;;;;;;9.73;1.88;;;;;;;19.10;44.18;100023.91;10377329;28;20072;-64
2022/07/02 20:09:11;;;;;;;13.27;1.67;;;;;;;19.55;44.37;100120.31;10429954;28;20052;-66
2022/07/02 20:14:11;;;;;;;5.57;1.35;;;;;;;19.44;44.97;100133.78;10393463;28;20046;-64
2022/07/02 20:19:12;;;;;;;7.32;1.35;;;;;;;19.37;44.99;100147.34;10377185;28;20203;-64
2022/07/02 20:24:13;;;;;;;10.70;1.17;;;;;;;19.34;45.00;100137.03;10376565;28;20046;-64
2022/07/02 20:29:15;;;;;;;10.40;1.10;;;;;;;18.73;44.77;100030.47;10376284;28;20080;-65
2022/07/02 20:34:16;;;;;;;6.78;1.00;;;;;;;19.43;44.84;100132.16;10376816;28;20037;-64
2022/07/02 20:39:17;;;;;;;4.80;1.17;;;;;;;19.41;45.03;100134.25;10376229;28;20038;-64
2022/07/02 20:44:18;;;;;;;5.82;1.08;;;;;;;19.38;45.58;100149.00;10376397;28;20054;-64
2022/07/02 20:49:19;;;;;;;5.63;1.30;;;;;;;19.31;45.32;100140.19;10375905;28;20073;-64
2022/07/02 20:54:20;;;;;;;5.53;1.33;;;;;;;19.20;45.83;100132.91;10375855;28;20100;-64
2022/07/02 20:59:21;;;;;;;5.80;1.20;;;;;;;18.74;46.07;100077.88;10375565;28;20414;-64
2022/07/02 21:04:22;;;;;;;10.50;1.52;;;;;;;18.16;46.50;99993.16;10375888;28;20042;-64
2022/07/02 21:09:24;;;;;;;7.10;1.23;;;;;;;18.93;46.73;100133.28;10374746;28;20041;-66
2022/07/02 21:14:26;;;;;;;5.95;1.20;;;;;;;18.80;46.95;100117.31;10375471;28;20041;-65
2022/07/02 21:19:27;;;;;;;11.45;1.40;;;;;;;18.80;47.26;100134.28;10374450;28;20041;-64
2022/07/02 21:24:28;;;;;;;4.72;0.82;;;;;;;18.74;47.55;100132.50;10373921;28;20042;-64
2022/07/02 21:29:28;;;;;;;9.63;1.30;;;;;;;18.66;48.02;100130.91;10373271;28;20167;-65
2022/07/02 21:34:29;;;;;;;3.53;1.00;;;;;;;18.63;48.25;100130.53;10374419;28;20046;-65
2022/07/02 21:39:30;;;;;;;7.82;1.17;;;;;;;18.54;48.36;100140.78;10373583;28;20046;-64
2022/07/02 21:44:31;;;;;;;5.18;0.90;;;;;;;18.11;48.77;100085.22;10373266;28;20612;-64
2022/07/02 21:49:32;;;;;;;4.53;1.00;;;;;;;18.13;49.12;100107.34;10373777;28;20416;-64
2022/07/02 21:54:33;;;;;;;4.00;1.00;;;;;;;18.18;49.47;100137.03;10373423;28;20054;-64
2022/07/02 21:59:34;;;;;;;4.50;1.33;;;;;;;17.79;50.02;100085.31;10372311;28;20512;-64
2022/07/02 22:04:35;;;;;;;11.73;1.20;;;;;;;18.01;50.17;100133.31;10372565;28;20512;-64
2022/07/02 22:09:36;;;;;;;6.68;1.00;;;;;;;17.91;50.44;100116.84;10373113;28;20045;-63
2022/07/02 22:14:36;;;;;;;7.03;1.30;;;;;;;17.90;50.62;100120.59;10372306;28;20048;-63
2022/07/02 22:19:37;;;;;;;7.60;1.50;;;;;;;17.79;50.89;100106.81;10372391;28;20042;-66
2022/07/02 22:24:38;;;;;;;5.95;1.25;;;;;;;17.88;50.86;100123.47;10372731;28;20497;-64
2022/07/02 22:29:39;;;;;;;3.88;1.27;;;;;;;17.83;50.93;100095.63;10372575;28;20101;-63
2022/07/02 22:34:39;;;;;;;7.75;1.30;;;;;;;17.95;51.08;100112.69;10372580;28;20042;-64
2022/07/02 22:39:42;;;;;;;5.35;1.13;;;;;;;17.93;51.24;100110.22;10372566;28;20037;-65
2022/07/02 22:44:43;;;;;;;2.33;1.10;;;;;;;17.91;51.15;100100.72;10405931;28;20064;-64
2022/07/02 22:49:44;;;;;;;8.57;1.33;;;;;;;17.85;51.62;100099.75;10415909;28;20041;-64
2022/07/02 22:54:45;;;;;;;4.10;1.27;;;;;;;17.87;51.72;100111.09;10410291;28;20042;-64
2022/07/02 22:59:45;;;;;;;4.97;1.25;;;;;;;17.82;52.01;100104.75;10380194;28;20041;-65
2022/07/02 23:04:46;;;;;;;5.43;1.20;;;;;;;16.62;52.12;99917.78;10379867;28;20468;-64
2022/07/02 23:09:47;;;;;;;4.80;1.20;;;;;;;17.79;51.98;100120.25;10379250;28;20460;-64
2022/07/02 23:14:48;;;;;;;6.47;1.13;;;;;;;17.70;52.15;100112.66;10378933;28;20080;-64
2022/07/02 23:19:48;;;;;;;6.38;1.10;;;;;;;16.86;52.52;99981.38;10379884;28;20514;-64
2022/07/02 23:24:49;;;;;;;3.85;1.23;;;;;;;17.74;52.67;100111.22;10379224;28;20038;-65
2022/07/02 23:29:50;;;;;;;5.25;1.30;;;;;;;17.39;52.49;100057.19;10378420;28;20038;-63